Thursday, November 15, 2018, 7:34 PM CST
Back to Local

KMDW, Chicago Midway Airport

Location: Chicago, IL, United States Lat: 41.783
Local Time: 7:34 PM CST ( 1:34 GMT) Lon: -87.75
Time Zone: US/Central Elev: 620 ft

Show me the last for .
Show Decoded

2018-11-15 19:00 METAR KMDW 160100Z 25010KT 5SM HZ BKN013 OVC055 00/M03 A2993 RMK AO2 T00001028 =
2018-11-15 18:53 METAR KMDW 160053Z 23009KT 6SM HZ SCT013 OVC060 00/M03 A2992 RMK AO2 SNB03E35
                 SLP144 P0000 T00001028 =
2018-11-15 18:41 METAR KMDW 160041Z 25007KT 5SM HZ SCT013 OVC060 00/M03 A2993 RMK AO2 SNB03E35
                 P0000 T00001028 =
2018-11-15 18:20 METAR KMDW 160020Z 24008KT 5SM -SN BR BKN013 OVC060 01/M03 A2993 RMK AO2 SNB03
                 P0000 T00061028 =
2018-11-15 18:06 METAR KMDW 160006Z 23008KT 2 1/2SM -SN BR OVC014 01/M03 A2993 RMK AO2 SNB03
                 P0000 T00061028 =
2018-11-15 17:53 METAR KMDW 152353Z 22008KT 6SM HZ OVC014 01/M03 A2993 RMK AO2 SLP146 T00061028
                 10017 20006 58005 =
2018-11-15 16:53 METAR KMDW 152253Z 24008KT 6SM HZ OVC015 01/M03 A2995 RMK AO2 SLP152 T00061028 =
2018-11-15 15:53 METAR KMDW 152153Z 23006KT 9SM OVC015 01/M03 A2994 RMK AO2 SLP151 T00111028 =
2018-11-15 14:53 METAR KMDW 152053Z 22007KT 9SM BKN014 OVC024 01/M03 A2994 RMK AO2 SLP151
                 T00111028 56022 =
2018-11-15 13:53 METAR KMDW 151953Z 20008KT 8SM BKN014 OVC024 01/M02 A2996 RMK AO2 SLP157
                 T00111022 =
2018-11-15 12:53 METAR KMDW 151853Z 19004KT 7SM BKN014 BKN024 OVC029 01/M02 A2998 RMK AO2 SLP164
                 T00111022 =
2018-11-15 11:53 METAR KMDW 151753Z 20004KT 5SM BR SCT007 OVC014 01/M02 A3001 RMK AO2 SLP174
                 SNE28 4/001 P0000 60008 T00111017 10011 21006 58030 =
2018-11-15 11:32 METAR KMDW 151732Z 15007KT 4SM BR BKN007 OVC012 01/M02 A3004 RMK AO2 SNE28 P0000
                 T00061022 =
2018-11-15 11:08 METAR KMDW 151708Z 23003KT 2SM BR BKN006 OVC012 01/M01 A3004 RMK AO2 SNE08 P0000
                 T00111011 $ =
2018-11-15 10:53 METAR KMDW 151653Z 19005KT 1 3/4SM -SN BR BKN006 OVC014 01/M01 A3006 RMK AO2
                 SLP189 P0000 T00061011 $ =
2018-11-15 09:53 METAR KMDW 151553Z COR VRB03KT 1 1/2SM SN BR OVC004 01/M01 A3008 RMK AO2 SNINCR
                 1/1 SLP198 P0006 T00061011 =
2018-11-15 09:47 METAR KMDW 151547Z VRB04KT 3/4SM R31C/3500VP6000FT SN BR OVC004 01/M01 A3009 RMK
                 AO2 P0006 =
2018-11-15 09:42 METAR KMDW 151542Z 15003KT 1/2SM R31C/2200VP6000FT SN FG OVC004 01/M01 A3009 RMK
                 AO2 P0006 T00061011 =
2018-11-15 08:57 METAR KMDW 151457Z 12005KT 1/2SM R31C/3500V4000FT SN FG BKN007 OVC015 00/M02
                 A3010 RMK AO2 P0000 T00001017 =
2018-11-15 08:53 METAR KMDW 151453Z 14004KT 1/2SM R31C/3000V4000FT SN FG FEW007 SCT019 OVC026
                 00/M02 A3010 RMK AO2 SLP205 P0002 60002 T00001017 56014 =
2018-11-15 08:51 METAR KMDW 151451Z 13004KT 1/2SM R31C/3000V4500FT SN FG FEW007 SCT019 OVC026
                 00/M02 A3010 RMK AO2 P0002 =
2018-11-15 08:36 METAR KMDW 151436Z COR 09006KT 1 1/2SM -SN BR FEW007 SCT019 OVC026 00/M02 A3011
                 RMK AO2 P0000 T00001022 =
2018-11-15 08:25 METAR KMDW 151425Z 05006KT 3SM -SN BR SCT019 OVC028 00/M02 A3010 RMK AO2 P0000
                 T00001022 =
2018-11-15 08:08 METAR KMDW 151408Z 06006KT 1SM R31C/5000VP6000FT -SN BR VV019 00/M02 A3011 RMK
                 AO2 P0000 T00001022 =
2018-11-15 07:59 METAR KMDW 151359Z 05007KT 3/4SM R31C/5000VP6000FT -SN BR OVC021 00/M03 A3012
                 RMK AO2 P0000 T00001028 =
2018-11-15 07:53 METAR KMDW 151353Z 05010KT 1 1/4SM -SN BR OVC021 00/M03 A3011 RMK AO2 SNB19
                 SLP210 P0000 T00001033 =
2018-11-15 07:43 METAR KMDW 151343Z 09006KT 1 3/4SM -SN BR OVC021 01/M04 A3013 RMK AO2 SNB19
                 P0000 T00061044 =
2018-11-15 07:23 METAR KMDW 151323Z 10007KT 9SM -SN BKN021 BKN039 OVC090 01/M06 A3015 RMK AO2
                 SNB19 P0000 T00061061 =
2018-11-15 06:53 METAR KMDW 151253Z 08004KT 9SM FEW023 SCT060 OVC080 00/M07 A3014 RMK AO2 SLP219
                 T00001067 =
2018-11-15 05:53 METAR KMDW 151153Z 05003KT 9SM BKN085 OVC120 M01/M07 A3018 RMK AO2 SLP230
                 T10061067 10000 21011 56016 =
2018-11-15 04:53 METAR KMDW 151053Z 14004KT 9SM BKN095 OVC120 M01/M07 A3019 RMK AO2 SLP236
                 T10061067 =
2018-11-15 03:53 METAR KMDW 150953Z 11007KT 10SM BKN120 OVC160 00/M06 A3021 RMK AO2 SLP240
                 T00001061 =
2018-11-15 02:53 METAR KMDW 150853Z 10008KT 10SM SCT130 OVC190 00/M06 A3022 RMK AO2 SLP246
                 T00001061 58033 =
2018-11-15 01:53 METAR KMDW 150753Z 09007KT 9SM OVC220 00/M06 A3026 RMK AO2 SLP257 T00001056 =
2018-11-15 00:53 METAR KMDW 150653Z 14006KT 9SM OVC220 M01/M06 A3030 RMK AO2 SLP273 T10111061 =
2018-11-14 23:53 METAR KMDW 150553Z 00000KT 10SM FEW024 BKN250 M01/M06 A3032 RMK AO2 SLP279
                 T10111056 10006 21017 400221072 58028 =
2018-11-14 22:53 METAR KMDW 150453Z 14005KT 10SM FEW024 M01/M06 A3035 RMK AO2 SLP290 T10111056 =
2018-11-14 21:53 METAR KMDW 150353Z 14004KT 10SM FEW024 M01/M05 A3038 RMK AO2 SLP301 T10061050 =
2018-11-14 21:04 METAR KMDW 150304Z 15003KT 10SM SCT024 00/M04 A3041 RMK AO2 T00001044 =
2018-11-14 20:53 METAR KMDW 150253Z 15005KT 10SM BKN023 00/M04 A3041 RMK AO2 SLP310 T00001044
                 58015 =
2018-11-14 20:44 METAR KMDW 150244Z 09004KT 10SM BKN023 00/M04 A3040 RMK AO2 T00001044 =
2018-11-14 19:53 METAR KMDW 150153Z 12004KT 10SM FEW025 M01/M05 A3043 RMK AO2 SLP318 T10111050 =

Support USWX by starting your Amazon purchase here.